createdAt,value
2018-02-25T00:02:16.805Z,41.60
2018-02-25T00:04:45.032Z,41.40
2018-02-25T00:07:12.514Z,41.40
2018-02-25T00:09:39.985Z,41.70
2018-02-25T00:12:08.240Z,41.10
2018-02-25T00:14:35.714Z,41.00
2018-02-25T00:17:03.186Z,40.70
2018-02-25T00:19:31.427Z,40.70
2018-02-25T00:21:58.896Z,40.60
2018-02-25T00:24:26.386Z,41.00
2018-02-25T00:26:54.620Z,41.20
2018-02-25T00:29:22.117Z,41.20
2018-02-25T00:31:50.339Z,41.70
2018-02-25T00:34:17.832Z,41.70
2018-02-25T00:36:45.301Z,41.80
2018-02-25T00:39:13.548Z,41.80
2018-02-25T00:41:41.016Z,41.80
2018-02-25T00:44:08.484Z,41.60
2018-02-25T00:46:36.717Z,41.70
2018-02-25T00:49:04.190Z,41.70
2018-02-25T00:51:31.660Z,41.60
2018-02-25T00:53:59.138Z,41.60
2018-02-25T00:56:27.366Z,41.50
2018-02-25T00:58:54.832Z,41.30
2018-02-25T01:01:22.315Z,41.60
2018-02-25T01:03:49.790Z,41.80
2018-02-25T01:06:17.252Z,42.40
2018-02-25T01:08:45.496Z,41.80
2018-02-25T01:11:12.968Z,41.80
2018-02-25T01:13:40.436Z,42.30
2018-02-25T01:16:08.669Z,41.80
2018-02-25T01:18:36.144Z,41.80
2018-02-25T01:21:03.616Z,42.30
2018-02-25T01:23:31.079Z,42.30
2018-02-25T01:25:59.310Z,41.90
2018-02-25T01:28:26.779Z,41.90
2018-02-25T01:30:54.250Z,42.40
2018-02-25T01:33:21.739Z,42.40
2018-02-25T01:35:49.968Z,42.00
2018-02-25T01:38:17.447Z,41.90
2018-02-25T01:40:44.920Z,42.30
2018-02-25T01:43:13.174Z,42.20
2018-02-25T01:45:40.660Z,42.10
2018-02-25T01:48:08.902Z,42.30
2018-02-25T01:50:48.201Z,42.20
2018-02-25T01:53:15.668Z,42.00
2018-02-25T01:55:43.139Z,42.20
2018-02-25T01:58:10.622Z,42.50
2018-02-25T02:00:39.105Z,42.00
2018-02-25T02:03:06.567Z,42.40
2018-02-25T02:05:34.041Z,42.20
2018-02-25T02:08:02.273Z,41.80
2018-02-25T02:10:29.746Z,42.40
2018-02-25T02:12:57.217Z,42.00
2018-02-25T02:15:24.684Z,42.40
2018-02-25T02:17:52.911Z,42.90
2018-02-25T02:20:20.396Z,42.20
2018-02-25T02:22:47.866Z,43.10
2018-02-25T02:25:15.338Z,42.50
2018-02-25T02:27:43.573Z,42.30
2018-02-25T02:30:11.044Z,42.30
2018-02-25T02:32:38.521Z,41.90
2018-02-25T02:35:06.759Z,42.80
2018-02-25T02:37:34.223Z,42.80
2018-02-25T02:40:01.695Z,42.10
2018-02-25T02:42:29.164Z,42.60
2018-02-25T02:44:56.638Z,41.90
2018-02-25T02:47:24.102Z,42.30
2018-02-25T02:49:52.335Z,42.40
2018-02-25T02:52:19.810Z,42.40
2018-02-25T02:54:47.289Z,42.60
2018-02-25T02:57:15.517Z,42.30
2018-02-25T02:59:42.992Z,42.20
2018-02-25T03:02:10.467Z,42.60
2018-02-25T03:04:38.709Z,42.50
2018-02-25T03:07:06.181Z,42.40
2018-02-25T03:09:33.664Z,42.60
2018-02-25T03:12:01.903Z,41.70
2018-02-25T03:14:29.391Z,41.70
2018-02-25T03:16:57.612Z,42.70
2018-02-25T03:19:25.083Z,42.60
2018-02-25T03:21:52.561Z,42.60
2018-02-25T03:24:20.034Z,42.60
2018-02-25T03:26:47.500Z,42.60
2018-02-25T03:29:15.742Z,42.60
2018-02-25T03:31:43.222Z,42.50
2018-02-25T03:34:10.691Z,43.00
2018-02-25T03:36:38.998Z,43.10
2018-02-25T03:39:06.464Z,43.10
2018-02-25T03:41:33.936Z,42.30
2018-02-25T03:44:01.398Z,42.40
2018-02-25T03:46:28.876Z,42.30
2018-02-25T03:48:56.347Z,43.00
2018-02-25T03:51:24.094Z,42.50
2018-02-25T03:53:51.565Z,42.40
2018-02-25T03:56:19.032Z,42.20
2018-02-25T03:58:47.265Z,42.10
2018-02-25T04:01:14.739Z,42.20
2018-02-25T04:03:42.200Z,42.30
2018-02-25T04:06:09.683Z,42.50
2018-02-25T04:08:37.919Z,42.00
2018-02-25T04:11:05.402Z,42.00
2018-02-25T04:13:32.878Z,42.20
2018-02-25T04:16:01.116Z,42.20
2018-02-25T04:18:28.598Z,42.10
2018-02-25T04:20:56.074Z,42.40
2018-02-25T04:23:24.302Z,42.40
2018-02-25T04:25:51.780Z,42.30
2018-02-25T04:28:19.247Z,41.90
2018-02-25T04:30:46.721Z,41.70
2018-02-25T04:33:14.969Z,41.90
2018-02-25T04:35:42.438Z,41.90
2018-02-25T04:38:09.903Z,42.30
2018-02-25T04:40:38.152Z,43.10
2018-02-25T04:43:05.625Z,43.00
2018-02-25T04:45:33.099Z,42.90
2018-02-25T04:48:00.564Z,42.60
2018-02-25T04:53:03.403Z,41.70
2018-02-25T04:55:31.645Z,41.30
2018-02-25T04:57:59.109Z,41.50
2018-02-25T05:00:26.591Z,41.40
2018-02-25T05:02:54.061Z,41.90
2018-02-25T05:05:27.864Z,41.60
2018-02-25T05:07:58.283Z,41.70
2018-02-25T05:10:26.038Z,42.00
2018-02-25T05:12:53.499Z,41.50
2018-02-25T05:15:20.982Z,41.60
2018-02-25T05:17:48.521Z,41.50
2018-02-25T05:20:15.989Z,41.80
2018-02-25T05:22:43.454Z,41.20
2018-02-25T05:25:10.921Z,41.90
2018-02-25T05:27:38.412Z,42.40
2018-02-25T05:30:06.658Z,41.60
2018-02-25T05:32:34.132Z,41.50
2018-02-25T05:35:03.466Z,41.60
2018-02-25T05:37:30.965Z,41.70
2018-02-25T05:39:58.427Z,41.40
2018-02-25T05:42:25.901Z,41.60
2018-02-25T05:44:53.367Z,41.50
2018-02-25T05:47:20.839Z,41.60
2018-02-25T05:49:49.084Z,42.10
2018-02-25T05:52:16.548Z,42.10
2018-02-25T05:54:44.048Z,42.00
2018-02-25T05:57:12.263Z,41.00
2018-02-25T05:59:39.725Z,40.90
2018-02-25T06:02:07.245Z,41.30
2018-02-25T06:04:34.712Z,41.10
2018-02-25T06:07:02.355Z,42.00
2018-02-25T06:09:29.821Z,41.40
2018-02-25T06:11:57.287Z,40.80
2018-02-25T06:14:24.771Z,41.00
2018-02-25T06:16:52.257Z,41.50
2018-02-25T06:19:19.721Z,41.70
2018-02-25T06:21:47.969Z,40.90
2018-02-25T06:24:15.432Z,40.90
2018-02-25T06:26:42.925Z,40.80
2018-02-25T06:29:10.394Z,40.90
2018-02-25T06:31:37.864Z,40.70
2018-02-25T06:34:05.341Z,40.90
2018-02-25T06:36:32.824Z,41.30
2018-02-25T06:39:01.083Z,40.70
2018-02-25T06:41:28.566Z,40.70
2018-02-25T06:43:56.025Z,40.30
2018-02-25T06:46:23.517Z,40.10
2018-02-25T06:48:51.002Z,40.50
2018-02-25T06:51:18.483Z,40.20
2018-02-25T06:53:45.956Z,40.00
2018-02-25T06:56:13.428Z,40.00
2018-02-25T06:58:40.888Z,40.10
2018-02-25T07:01:09.130Z,40.00
2018-02-25T07:03:36.601Z,39.90
2018-02-25T07:06:04.089Z,39.80
2018-02-25T07:08:31.552Z,39.80
2018-02-25T07:10:59.019Z,39.70
2018-02-25T07:13:26.508Z,40.00
2018-02-25T07:15:53.971Z,39.60
2018-02-25T07:18:21.444Z,39.30
2018-02-25T07:20:48.912Z,39.90
2018-02-25T07:23:16.384Z,40.20
2018-02-25T07:25:45.463Z,39.70
2018-02-25T07:28:12.932Z,39.70
2018-02-25T07:30:41.186Z,39.80
2018-02-25T07:33:08.706Z,39.80
2018-02-25T07:35:47.568Z,39.70
2018-02-25T07:38:15.542Z,39.60
2018-02-25T07:40:43.057Z,39.40
2018-02-25T07:43:10.531Z,38.70
2018-02-25T07:45:37.994Z,39.10
2018-02-25T07:48:05.495Z,38.30
2018-02-25T07:50:33.728Z,38.30
2018-02-25T07:53:01.204Z,38.30
2018-02-25T07:55:28.676Z,38.80
2018-02-25T07:57:56.148Z,38.10
2018-02-25T08:00:23.608Z,38.10
2018-02-25T08:02:51.840Z,38.50
2018-02-25T08:05:20.323Z,38.40
2018-02-25T08:07:47.805Z,37.70
2018-02-25T08:10:15.268Z,37.50
2018-02-25T08:12:43.513Z,37.20
2018-02-25T08:15:10.973Z,37.10
2018-02-25T08:17:38.453Z,37.10
2018-02-25T08:20:05.913Z,36.90
2018-02-25T08:22:33.389Z,37.00
2018-02-25T08:25:01.628Z,36.60
2018-02-25T08:27:29.122Z,36.50
2018-02-25T08:29:57.353Z,36.30
2018-02-25T08:32:24.896Z,36.30
2018-02-25T08:34:52.359Z,35.60
2018-02-25T08:37:19.849Z,35.50
2018-02-25T08:39:47.308Z,35.50
2018-02-25T08:42:14.786Z,35.70
2018-02-25T08:44:42.352Z,35.70
2018-02-25T08:47:09.836Z,35.20
2018-02-25T08:49:37.305Z,35.00
2018-02-25T08:52:04.775Z,35.50
2018-02-25T08:54:32.243Z,34.40
2018-02-25T08:56:59.725Z,33.50
2018-02-25T08:59:27.959Z,28.40
2018-02-25T09:01:55.422Z,27.90
2018-02-25T09:04:22.884Z,26.70
2018-02-25T09:06:50.340Z,25.80
2018-02-25T09:09:17.813Z,26.10
2018-02-25T09:11:45.266Z,24.20
2018-02-25T09:14:12.732Z,23.20
2018-02-25T09:16:40.204Z,22.70
2018-02-25T09:19:07.673Z,21.90
2018-02-25T09:21:35.891Z,21.60
2018-02-25T09:24:03.431Z,21.60
2018-02-25T09:26:30.885Z,21.70
2018-02-25T09:28:58.356Z,21.90
2018-02-25T09:31:25.821Z,21.00
2018-02-25T09:33:53.293Z,20.80
2018-02-25T09:36:20.820Z,20.20
2018-02-25T09:38:48.294Z,19.70
2018-02-25T09:41:15.768Z,19.30
2018-02-25T09:43:43.236Z,19.30
2018-02-25T09:46:10.692Z,19.50
2018-02-25T09:48:38.153Z,18.10
2018-02-25T09:51:05.631Z,18.80
2018-02-25T09:53:33.920Z,18.40
2018-02-25T09:56:01.389Z,18.40
2018-02-25T09:58:28.894Z,18.70
2018-02-25T10:00:56.345Z,20.60
2018-02-25T10:03:24.246Z,19.30
2018-02-25T10:05:52.505Z,18.30
2018-02-25T10:08:20.049Z,18.30
2018-02-25T10:10:47.583Z,18.50
2018-02-25T10:13:15.107Z,18.80
2018-02-25T10:15:43.361Z,18.00
2018-02-25T10:18:10.852Z,17.90
2018-02-25T10:20:38.326Z,18.60
2018-02-25T10:23:05.799Z,16.80
2018-02-25T10:25:33.268Z,17.90
2018-02-25T10:28:01.528Z,17.60
2018-02-25T10:30:29.067Z,18.20
2018-02-25T10:32:56.526Z,18.60
2018-02-25T10:35:24.086Z,17.70
2018-02-25T10:37:51.564Z,16.90
2018-02-25T10:40:19.139Z,17.80
2018-02-25T10:42:46.800Z,17.10
2018-02-25T10:45:14.353Z,18.10
2018-02-25T10:47:41.919Z,18.10
2018-02-25T10:50:09.475Z,19.10
2018-02-25T10:52:36.959Z,17.30
2018-02-25T10:55:04.481Z,16.10
2018-02-25T10:57:31.947Z,17.00
2018-02-25T10:59:59.416Z,17.50
2018-02-25T11:02:26.875Z,18.00
2018-02-25T11:04:54.367Z,20.00
2018-02-25T11:07:22.632Z,18.80
2018-02-25T11:09:50.105Z,18.70
2018-02-25T11:12:18.331Z,18.20
2018-02-25T11:14:45.797Z,18.10
2018-02-25T11:17:13.266Z,17.30
2018-02-25T11:19:40.737Z,17.30
2018-02-25T11:22:08.233Z,17.40
2018-02-25T11:24:35.726Z,16.80
2018-02-25T11:27:03.229Z,16.80
2018-02-25T11:29:31.492Z,18.40
2018-02-25T11:31:59.727Z,17.80
2018-02-25T11:34:27.205Z,17.70
2018-02-25T11:36:54.693Z,16.90
2018-02-25T11:39:22.172Z,18.30
2018-02-25T11:41:49.648Z,18.50
2018-02-25T11:44:17.135Z,17.50
2018-02-25T11:46:44.610Z,19.00
2018-02-25T11:49:12.141Z,17.60
2018-02-25T11:51:39.644Z,17.20
2018-02-25T11:54:07.935Z,18.20
2018-02-25T11:56:35.426Z,18.20
2018-02-25T11:59:02.934Z,18.40
2018-02-25T12:01:31.182Z,18.70
2018-02-25T12:03:58.666Z,18.70
2018-02-25T12:06:26.926Z,18.90
2018-02-25T12:08:54.409Z,18.90
2018-02-25T12:11:21.967Z,19.00
2018-02-25T12:13:50.241Z,18.60
2018-02-25T12:16:18.594Z,17.50
2018-02-25T12:18:46.108Z,17.50
2018-02-25T12:21:13.618Z,17.80
2018-02-25T12:23:41.150Z,17.50
2018-02-25T12:26:08.662Z,17.10
2018-02-25T12:28:36.206Z,17.90
2018-02-25T12:31:05.354Z,18.20
2018-02-25T12:33:32.896Z,18.10
2018-02-25T12:36:00.437Z,18.10
2018-02-25T12:38:27.974Z,18.60
2018-02-25T12:40:56.263Z,19.40
2018-02-25T12:43:24.497Z,19.40
2018-02-25T12:45:51.994Z,19.40
2018-02-25T12:48:20.306Z,18.90
2018-02-25T12:50:47.823Z,18.90
2018-02-25T12:53:16.098Z,18.80
2018-02-25T12:55:44.464Z,18.80
2018-02-25T12:58:12.022Z,19.20
2018-02-25T13:00:39.501Z,20.00
2018-02-25T13:03:07.753Z,19.60
2018-02-25T13:05:35.288Z,19.50
2018-02-25T13:08:02.799Z,19.70
2018-02-25T13:10:31.054Z,19.90
2018-02-25T13:12:58.535Z,19.90
2018-02-25T13:15:26.812Z,20.60
2018-02-25T13:17:54.686Z,20.10
2018-02-25T13:20:22.937Z,20.30
2018-02-25T13:22:51.233Z,20.30
2018-02-25T13:25:19.491Z,20.70
2018-02-25T13:27:47.781Z,20.90
2018-02-25T13:30:16.024Z,21.10
2018-02-25T13:32:43.538Z,21.00
2018-02-25T13:35:11.064Z,21.70
2018-02-25T13:37:38.991Z,20.80
2018-02-25T13:40:06.491Z,20.30
2018-02-25T13:42:34.742Z,20.90
2018-02-25T13:45:02.238Z,20.90
2018-02-25T13:47:30.502Z,20.20
2018-02-25T13:49:58.023Z,20.20
2018-02-25T13:52:25.496Z,20.60
2018-02-25T13:54:53.013Z,20.00
2018-02-25T13:57:20.526Z,19.80
2018-02-25T13:59:48.019Z,19.60
2018-02-25T14:02:15.595Z,19.50
2018-02-25T14:04:43.121Z,19.10
2018-02-25T14:07:11.388Z,19.40
2018-02-25T14:09:38.877Z,19.40
2018-02-25T14:12:06.389Z,19.50
2018-02-25T14:14:33.859Z,20.00
2018-02-25T14:17:01.350Z,19.50
2018-02-25T14:19:28.840Z,19.80
2018-02-25T14:21:56.349Z,19.40
2018-02-25T14:24:24.589Z,19.30
2018-02-25T14:26:52.145Z,19.30
2018-02-25T14:29:19.626Z,19.50
2018-02-25T14:31:47.108Z,19.80
2018-02-25T14:34:15.351Z,18.90
2018-02-25T14:36:42.825Z,18.90
2018-02-25T14:39:11.078Z,18.80
2018-02-25T14:41:38.774Z,18.70
2018-02-25T14:44:07.037Z,19.40
2018-02-25T14:46:34.558Z,19.40
2018-02-25T14:49:02.246Z,18.80
2018-02-25T14:51:29.743Z,19.20
2018-02-25T14:53:57.221Z,19.10
2018-02-25T14:56:25.729Z,18.80
2018-02-25T14:58:53.232Z,18.80
2018-02-25T15:01:21.476Z,19.20
2018-02-25T15:03:48.990Z,19.20
2018-02-25T15:06:17.653Z,19.60
2018-02-25T15:08:45.131Z,18.80
2018-02-25T15:11:12.625Z,18.90
2018-02-25T15:13:40.109Z,19.00
2018-02-25T15:16:08.362Z,19.50
2018-02-25T15:18:35.849Z,19.50
2018-02-25T15:21:04.121Z,19.30
2018-02-25T15:23:31.588Z,19.30
2018-02-25T15:25:59.811Z,19.30
2018-02-25T15:28:27.286Z,19.30
2018-02-25T15:30:54.807Z,19.60
2018-02-25T15:33:22.448Z,20.00
2018-02-25T15:35:50.026Z,20.60
2018-02-25T15:38:17.523Z,20.20
2018-02-25T15:40:45.115Z,19.50
2018-02-25T15:43:12.582Z,19.50
2018-02-25T15:45:40.831Z,20.00
2018-02-25T15:48:08.302Z,20.00
2018-02-25T15:50:35.756Z,19.00
2018-02-25T15:53:03.272Z,19.50
2018-02-25T15:55:30.803Z,20.70
2018-02-25T15:57:58.275Z,20.10
2018-02-25T16:00:25.815Z,19.00
2018-02-25T16:02:53.365Z,18.70
2018-02-25T16:05:21.593Z,19.20
2018-02-25T16:07:49.069Z,19.10
2018-02-25T16:10:16.520Z,19.50
2018-02-25T16:12:44.011Z,20.70
2018-02-25T16:15:12.240Z,19.70
2018-02-25T16:17:39.906Z,19.70
2018-02-25T16:20:07.429Z,19.30
2018-02-25T16:22:34.905Z,18.60
2018-02-25T16:25:02.364Z,19.00
2018-02-25T16:27:29.837Z,19.20
2018-02-25T16:29:57.313Z,19.90
2018-02-25T16:32:24.786Z,21.40
2018-02-25T16:34:53.021Z,19.80
2018-02-25T16:37:20.495Z,19.80
2018-02-25T16:39:48.070Z,20.30
2018-02-25T16:42:15.557Z,20.90
2018-02-25T16:44:43.789Z,20.40
2018-02-25T16:47:11.261Z,20.40
2018-02-25T16:49:38.721Z,19.70
2018-02-25T16:52:06.964Z,21.20
2018-02-25T16:54:34.462Z,21.00
2018-02-25T16:57:01.946Z,21.00
2018-02-25T16:59:29.407Z,21.30
2018-02-25T17:01:56.876Z,20.10
2018-02-25T17:04:24.362Z,21.00
2018-02-25T17:06:52.022Z,20.70
2018-02-25T17:09:19.514Z,21.10
2018-02-25T17:11:47.753Z,21.20
2018-02-25T17:14:15.231Z,21.10
2018-02-25T17:16:42.711Z,21.60
2018-02-25T17:19:10.942Z,21.10
2018-02-25T17:21:38.405Z,21.00
2018-02-25T17:24:05.900Z,21.80
2018-02-25T17:26:34.145Z,20.80
2018-02-25T17:29:01.608Z,20.80
2018-02-25T17:31:29.166Z,20.90
2018-02-25T17:33:56.714Z,21.20
2018-02-25T17:36:24.201Z,21.00
2018-02-25T17:38:53.512Z,21.30
2018-02-25T17:41:21.794Z,21.50
2018-02-25T17:43:50.058Z,21.80
2018-02-25T17:46:18.366Z,22.10
2018-02-25T17:48:46.464Z,22.00
2018-02-25T17:51:14.018Z,22.80
2018-02-25T17:53:42.330Z,22.80
2018-02-25T17:56:09.863Z,22.80
2018-02-25T17:58:37.517Z,23.00
2018-02-25T18:01:05.094Z,23.00
2018-02-25T18:03:32.591Z,22.90
2018-02-25T18:06:00.840Z,23.30
2018-02-25T18:08:28.325Z,23.20
2018-02-25T18:10:56.577Z,24.30
2018-02-25T18:13:24.051Z,24.20
2018-02-25T18:15:52.290Z,24.10
2018-02-25T18:18:19.776Z,24.10
2018-02-25T18:20:47.271Z,24.20
2018-02-25T18:23:14.740Z,25.40
2018-02-25T18:25:42.397Z,24.90
2018-02-25T18:28:10.644Z,25.10
2018-02-25T18:30:40.890Z,25.70
2018-02-25T18:33:09.234Z,25.70
2018-02-25T18:35:37.570Z,25.60
2018-02-25T18:38:05.130Z,25.50
2018-02-25T18:40:32.619Z,25.80
2018-02-25T18:43:00.098Z,25.40
2018-02-25T18:45:28.348Z,25.80
2018-02-25T18:47:55.858Z,25.80
2018-02-25T18:50:23.358Z,25.80
2018-02-25T18:52:50.859Z,26.50
2018-02-25T18:55:18.345Z,26.30
2018-02-25T18:57:45.932Z,27.10
2018-02-25T19:00:13.412Z,27.10
2018-02-25T19:02:40.941Z,27.20
2018-02-25T19:05:08.424Z,26.80
2018-02-25T19:07:35.912Z,27.00
2018-02-25T19:10:03.448Z,27.10
2018-02-25T19:12:31.876Z,27.10
2018-02-25T19:14:59.419Z,27.00
2018-02-25T19:17:26.961Z,27.70
2018-02-25T19:19:54.538Z,27.80
2018-02-25T19:22:22.091Z,28.00
2018-02-25T19:24:49.734Z,28.30
2018-02-25T19:27:18.070Z,28.10
2018-02-25T19:29:45.658Z,28.10
2018-02-25T19:32:13.329Z,28.20
2018-02-25T19:34:41.644Z,28.70
2018-02-25T19:37:15.081Z,28.60
2018-02-25T19:39:49.141Z,28.90
2018-02-25T19:42:16.668Z,28.90
2018-02-25T19:47:18.129Z,29.20
2018-02-25T19:49:45.698Z,29.40
2018-02-25T19:52:13.262Z,29.60
2018-02-25T19:54:40.810Z,30.00
2018-02-25T19:57:08.525Z,29.80
2018-02-25T19:59:36.422Z,30.00
2018-02-25T20:02:03.971Z,30.60
2018-02-25T20:04:31.567Z,30.00
2018-02-25T20:06:59.097Z,30.20
2018-02-25T20:09:26.666Z,30.40
2018-02-25T20:11:54.209Z,30.70
2018-02-25T20:14:21.759Z,31.30
2018-02-25T20:16:49.374Z,30.80
2018-02-25T20:19:19.069Z,31.60
2018-02-25T20:21:46.617Z,31.60
2018-02-25T20:24:14.199Z,31.10
2018-02-25T20:26:42.551Z,32.20
2018-02-25T20:29:10.101Z,32.20
2018-02-25T20:31:38.397Z,32.20
2018-02-25T20:34:05.979Z,32.10
2018-02-25T20:36:33.536Z,31.60
2018-02-25T20:39:01.853Z,32.20
2018-02-25T20:41:29.447Z,32.10
2018-02-25T20:43:57.182Z,32.40
2018-02-25T20:46:24.937Z,32.50
2018-02-25T20:48:52.482Z,32.70
2018-02-25T20:51:20.009Z,32.90
2018-02-25T20:53:47.551Z,33.10
2018-02-25T20:56:15.147Z,33.60
2018-02-25T20:58:43.520Z,33.60
2018-02-25T21:01:11.059Z,33.50
2018-02-25T21:03:38.557Z,34.10
2018-02-25T21:06:06.069Z,33.20
2018-02-25T21:08:33.586Z,33.60
2018-02-25T21:11:01.120Z,34.50
2018-02-25T21:13:29.401Z,33.10
2018-02-25T21:15:57.669Z,34.50
2018-02-25T21:18:25.207Z,34.40
2018-02-25T21:20:52.815Z,34.10
2018-02-25T21:23:20.364Z,33.60
2018-02-25T21:25:47.976Z,33.70
2018-02-25T21:28:15.484Z,33.10
2018-02-25T21:30:43.126Z,34.50
2018-02-25T21:33:10.655Z,34.50
2018-02-25T21:35:38.202Z,34.40
2018-02-25T21:38:05.719Z,34.90
2018-02-25T21:40:33.996Z,34.40
2018-02-25T21:43:01.549Z,34.40
2018-02-25T21:45:29.877Z,34.50
2018-02-25T21:47:57.430Z,34.40
2018-02-25T21:50:24.953Z,34.30
2018-02-25T21:52:53.541Z,34.10
2018-02-25T21:55:21.173Z,34.00
2018-02-25T21:57:54.394Z,33.00
2018-02-25T22:00:27.665Z,33.10
2018-02-25T22:03:01.527Z,33.70
2018-02-25T22:05:29.030Z,33.60
2018-02-25T22:07:56.565Z,34.10
2018-02-25T22:10:24.112Z,33.70
2018-02-25T22:12:51.613Z,33.70
2018-02-25T22:15:19.885Z,33.30
2018-02-25T22:17:47.414Z,33.10
2018-02-25T22:20:14.932Z,33.10
2018-02-25T22:22:42.450Z,33.30
2018-02-25T22:25:09.963Z,33.20
2018-02-25T22:27:37.550Z,33.20
2018-02-25T22:30:05.049Z,33.00
2018-02-25T22:32:33.411Z,33.00
2018-02-25T22:35:00.934Z,33.00
2018-02-25T22:37:28.444Z,32.70
2018-02-25T22:39:56.744Z,32.30
2018-02-25T22:42:24.310Z,32.30
2018-02-25T22:44:51.813Z,31.70
2018-02-25T22:47:19.381Z,32.10
2018-02-25T22:49:47.680Z,31.80
2018-02-25T22:52:15.354Z,31.70
2018-02-25T22:54:42.896Z,31.60
2018-02-25T22:57:11.221Z,31.90
2018-02-25T22:59:38.733Z,31.90
2018-02-25T23:02:07.026Z,31.70
2018-02-25T23:04:35.294Z,31.90
2018-02-25T23:07:03.637Z,32.00
2018-02-25T23:09:31.132Z,31.90
2018-02-25T23:11:59.418Z,31.80
2018-02-25T23:14:26.944Z,31.70
2018-02-25T23:16:54.445Z,31.70
2018-02-25T23:19:22.011Z,31.30
2018-02-25T23:21:49.519Z,31.70
2018-02-25T23:24:17.027Z,31.30
2018-02-25T23:26:44.554Z,31.40
2018-02-25T23:29:12.834Z,30.80
2018-02-25T23:31:41.102Z,31.20
2018-02-25T23:34:09.372Z,32.10
2018-02-25T23:36:36.899Z,31.40
2018-02-25T23:39:04.430Z,30.60
2018-02-25T23:41:31.957Z,30.90
2018-02-25T23:44:00.224Z,30.70
2018-02-25T23:46:27.757Z,30.60
2018-02-25T23:48:55.238Z,31.10
2018-02-25T23:51:23.516Z,31.20
2018-02-25T23:53:51.021Z,31.20
2018-02-25T23:56:18.535Z,30.60
2018-02-25T23:58:46.029Z,30.30
